Terminal Aerodrome Forecast
Issued by NWS Mobile, AL

Home | Current Version | Previous Version | Text Only | Print | Product List | Glossary On
Versions: 1 2 3 4 5 6 7 8 9 10 11 12 13 14 15 16 17 18 19 20 21 22 23 24 25 26 27 28 29 30 31 32 33 34 35 36 37 38
000
FTUS44 KMOB 031136
TAFPNS
TAF
KPNS 031136Z 0312/0412 10004KT 1/4SM FG VV002
     FM031700 16009KT P6SM OVC007
     FM040000 14005KT 4SM BR OVC004
     FM040300 15005KT 1/4SM FG OVC004=

USA.gov is the U.S. government's official web portal to all federal, state and local government web resources and services.